Time;durP1;ratioP1;P1;durP2;ratioP2;P2;SDS_P1;SDS_P2;PMS_P1;PMS_P2;Temp;Humidity;BMP_temperature;BMP_pressure;BME280_temperature;BME280_humidity;BME280_pressure;Samples;Min_cycle;Max_cycle;Signal;HPM_P1;HPM_P2
2023/08/05 00:04:28;;;;;;;16.02;6.18;;;;;;;;;;10322692;28;20316;-68
2023/08/05 00:09:28;;;;;;;7.22;5.13;;;;;;;;;;10322623;28;20022;-68
2023/08/05 00:14:28;;;;;;;8.38;6.07;;;;;;;;;;10316228;28;20097;-68
2023/08/05 00:19:29;;;;;;;10.95;5.53;;;;;;;;;;10298592;28;20359;-67
2023/08/05 00:24:29;;;;;;;9.40;6.20;;;;;;;;;;10323766;28;20049;-68
2023/08/05 00:29:32;;;;;;;8.93;5.63;;;;;;;;;;10323643;28;20018;-68
2023/08/05 00:34:34;;;;;;;10.88;5.82;;;;;;;;;;10324120;28;20053;-68
2023/08/05 00:39:34;;;;;;;11.90;6.13;;;;;;;;;;10321293;28;20011;-68
2023/08/05 00:44:34;;;;;;;8.85;6.07;;;;;;;;;;10323477;28;20050;-69
2023/08/05 00:49:35;;;;;;;8.53;6.57;;;;;;;;;;10316749;28;20070;-68
2023/08/05 00:54:35;;;;;;;9.73;5.93;;;;;;;;;;10312055;28;20094;-68
2023/08/05 00:59:36;;;;;;;9.15;5.25;;;;;;;;;;10313787;28;20021;-68
2023/08/05 01:04:36;;;;;;;10.60;6.10;;;;;;;;;;10322562;28;20029;-68
2023/08/05 01:09:36;;;;;;;9.00;6.37;;;;;;;;;;10286392;28;20244;-68
2023/08/05 01:14:37;;;;;;;7.70;6.30;;;;;;;;;;10310574;28;20015;-68
2023/08/05 01:19:37;;;;;;;9.60;6.17;;;;;;;;;;10310702;28;20018;-68
2023/08/05 01:24:56;;;;;;;17.17;6.13;;;;;;;;;;10320749;28;20054;-68
2023/08/05 01:29:56;;;;;;;10.52;6.07;;;;;;;;;;10308538;28;20019;-68
2023/08/05 01:34:57;;;;;;;9.95;5.57;;;;;;;;;;10309165;28;20212;-68
2023/08/05 01:39:57;;;;;;;7.32;5.50;;;;;;;;;;10316758;28;20320;-69
2023/08/05 01:44:57;;;;;;;9.15;6.07;;;;;;;;;;10317272;28;20053;-68
2023/08/05 01:49:57;;;;;;;10.13;6.95;;;;;;;;;;10309809;28;20211;-68
2023/08/05 01:54:58;;;;;;;12.80;6.35;;;;;;;;;;10323460;28;20030;-68
2023/08/05 01:59:58;;;;;;;9.30;6.23;;;;;;;;;;10313827;28;20026;-68
2023/08/05 02:04:58;;;;;;;7.82;6.45;;;;;;;;;;10314478;28;20022;-68
2023/08/05 02:09:59;;;;;;;8.10;6.53;;;;;;;;;;10318584;28;20209;-68
2023/08/05 02:14:59;;;;;;;12.93;6.80;;;;;;;;;;10315599;28;20052;-68
2023/08/05 03:14:54;;;;;;;14.60;7.82;;;;;;;23.55;100.00;94137.16;10617151;27;20465;-76
2023/08/05 03:19:54;;;;;;;139.40;125.43;;;;;;;23.45;100.00;94135.84;10616648;27;20038;-76
2023/08/05 03:24:54;;;;;;;15.03;7.87;;;;;;;23.42;100.00;94138.56;10617429;27;20621;-76
2023/08/05 03:29:55;;;;;;;9.77;7.10;;;;;;;23.31;100.00;94141.91;10616998;27;20046;-76
2023/08/05 03:34:55;;;;;;;10.17;7.17;;;;;;;23.16;100.00;94135.44;10591478;27;20019;-76
2023/08/05 03:39:56;;;;;;;10.60;6.53;;;;;;;23.06;100.00;94137.97;10598554;27;20261;-75
2023/08/05 03:44:56;;;;;;;13.30;6.43;;;;;;;23.13;100.00;94141.63;10614806;27;20211;-76
2023/08/05 03:49:56;;;;;;;11.98;7.13;;;;;;;23.13;100.00;94140.84;10615676;27;20554;-76
2023/08/05 03:54:57;;;;;;;8.67;6.47;;;;;;;23.08;100.00;94136.47;10615442;27;20019;-76
2023/08/05 03:59:57;;;;;;;9.38;7.03;;;;;;;23.18;100.00;94135.06;10615560;27;20264;-76
2023/08/05 04:04:58;;;;;;;9.27;6.90;;;;;;;23.13;100.00;94129.91;10588725;27;20055;-76
2023/08/05 04:09:58;;;;;;;12.57;8.33;;;;;;;23.00;100.00;94143.75;10572379;28;20321;-76
2023/08/05 04:14:59;;;;;;;9.63;6.72;;;;;;;23.02;100.00;94137.91;10549056;28;20036;-76
2023/08/05 04:20:00;;;;;;;19.23;16.55;;;;;;;22.94;100.00;94128.00;10562225;28;20016;-76
2023/08/05 04:25:00;;;;;;;12.82;6.30;;;;;;;22.91;100.00;94143.22;10585887;28;20220;-76
2023/08/05 04:30:02;;;;;;;11.60;6.30;;;;;;;22.83;100.00;94144.28;10585880;27;20027;-75
2023/08/05 04:35:03;;;;;;;83.55;77.05;;;;;;;22.84;100.00;94129.41;10584952;28;20011;-75
2023/08/05 04:40:04;;;;;;;583.30;539.97;;;;;;;22.97;100.00;94138.22;10585108;28;20022;-76
2023/08/05 04:45:05;;;;;;;150.60;138.05;;;;;;;23.09;100.00;94134.50;10585909;28;20024;-76
2023/08/05 04:50:05;;;;;;;7.10;5.72;;;;;;;23.24;100.00;94128.09;10584735;28;20023;-76
2023/08/05 04:55:09;;;;;;;365.60;340.60;;;;;;;23.67;100.00;94125.97;10584612;28;20016;-77
2023/08/05 05:00:10;;;;;;;115.35;107.82;;;;;;;24.04;100.00;94133.50;10547181;28;20313;-77
2023/08/05 05:05:11;;;;;;;103.60;96.47;;;;;;;24.57;100.00;94137.19;10583568;28;20023;-77
2023/08/05 05:10:11;;;;;;;241.30;224.32;;;;;;;25.17;100.00;94147.16;10562189;28;20245;-77
2023/08/05 05:15:12;;;;;;;11.18;7.38;;;;;;;25.50;100.00;94130.94;10542172;28;20036;-77
2023/08/05 05:20:12;;;;;;;166.13;152.03;;;;;;;26.00;100.00;94127.63;10558333;28;20019;-77
2023/08/05 05:25:13;;;;;;;10.77;9.05;;;;;;;26.22;100.00;94117.50;10574713;28;20411;-77
2023/08/05 05:30:13;;;;;;;65.88;60.92;;;;;;;26.45;100.00;94128.19;10551748;28;20384;-76
2023/08/05 05:35:14;;;;;;;10.40;5.97;;;;;;;26.24;99.73;94146.22;10560443;28;20023;-75
2023/08/05 05:40:14;;;;;;;9.97;6.60;;;;;;;26.04;100.00;94136.72;10540929;28;20265;-76
2023/08/05 05:45:15;;;;;;;7.80;5.45;;;;;;;26.17;99.66;94131.66;10550340;28;20272;-76
2023/08/05 05:50:16;;;;;;;9.75;6.10;;;;;;;26.79;95.79;94122.34;10582094;28;20343;-76
2023/08/05 05:55:17;;;;;;;8.40;5.85;;;;;;;26.89;95.35;94123.53;10573961;28;20209;-76
2023/08/05 06:00:17;;;;;;;7.28;5.20;;;;;;;28.12;85.58;94102.84;10542821;28;20218;-76
2023/08/05 06:05:17;;;;;;;11.37;5.70;;;;;;;28.96;79.82;94103.94;10581993;28;20313;-76
2023/08/05 06:10:18;;;;;;;18.75;7.28;;;;;;;30.11;69.52;94098.47;10581476;28;20304;-76
2023/08/05 06:15:18;;;;;;;937.20;850.90;;;;;;;30.77;64.22;94091.66;10581680;28;20023;-75
2023/08/05 06:20:19;;;;;;;865.53;795.07;;;;;;;30.57;65.31;94090.78;10580904;28;20019;-75
2023/08/05 06:25:19;;;;;;;961.60;883.00;;;;;;;30.58;65.06;94079.25;10580978;28;20261;-76
2023/08/05 06:30:19;;;;;;;967.80;874.70;;;;;;;30.88;63.24;94074.06;10580453;28;20618;-76
2023/08/05 06:35:21;;;;;;;1163.40;999.90;;;;;;;32.10;58.33;94063.53;10580701;28;20284;-76
2023/08/05 06:40:21;;;;;;;1206.82;999.90;;;;;;;33.31;50.74;94043.72;10581037;28;20277;-76
2023/08/05 06:45:22;;;;;;;1189.07;999.90;;;;;;;33.26;48.24;94047.06;10580240;28;20032;-75
2023/08/05 06:50:23;;;;;;;1165.40;999.90;;;;;;;34.06;47.52;94054.81;10564788;28;20138;-75
2023/08/05 06:55:24;;;;;;;1097.88;996.50;;;;;;;33.74;45.84;94042.56;10549265;28;20023;-76
2023/08/05 07:00:24;;;;;;;1030.87;937.80;;;;;;;34.19;44.42;94029.75;10580114;28;20045;-75
2023/08/05 07:05:24;;;;;;;1204.60;999.90;;;;;;;34.96;42.10;94015.06;10579496;28;20065;-75
2023/08/05 07:10:25;;;;;;;1193.70;999.90;;;;;;;35.73;40.87;93998.81;10579367;28;20376;-75
2023/08/05 07:15:25;;;;;;;1058.33;967.37;;;;;;;36.31;38.88;94007.16;10580467;28;20296;-75
2023/08/05 07:20:26;;;;;;;1227.57;999.90;;;;;;;37.21;37.05;94001.53;10567165;28;20035;-75
2023/08/05 07:25:26;;;;;;;1235.90;999.90;;;;;;;38.20;35.47;93996.06;10538391;28;20333;-76
2023/08/05 07:30:26;;;;;;;1248.23;999.90;;;;;;;39.20;33.48;93990.50;10538422;28;20050;-75
2023/08/05 07:35:28;;;;;;;1237.80;999.90;;;;;;;39.90;31.72;93978.06;10580096;28;20034;-75
2023/08/05 07:40:29;;;;;;;263.02;239.00;;;;;;;39.64;32.00;93972.22;10579498;27;20297;-75
2023/08/05 07:45:30;;;;;;;509.38;464.67;;;;;;;41.04;30.34;93971.44;10580748;27;20254;-75
2023/08/05 07:50:30;;;;;;;1213.03;999.90;;;;;;;41.49;29.29;93958.69;10585712;28;20055;-74
2023/08/05 07:55:32;;;;;;;1222.27;999.90;;;;;;;41.11;29.71;93948.47;10586960;28;20276;-75
2023/08/05 08:00:33;;;;;;;1260.45;999.90;;;;;;;41.06;29.49;93955.59;10586906;28;20625;-76
2023/08/05 08:05:33;;;;;;;520.50;475.85;;;;;;;41.29;29.24;93958.69;10586923;28;20242;-76
2023/08/05 08:10:34;;;;;;;1209.43;999.90;;;;;;;41.82;28.54;93959.56;10586487;28;20430;-76
2023/08/05 08:15:34;;;;;;;1229.60;999.90;;;;;;;42.44;27.79;93953.72;10559606;28;20326;-76
2023/08/05 08:20:34;;;;;;;1263.07;999.90;;;;;;;42.41;28.65;93941.38;10560307;28;20050;-76
2023/08/05 08:25:36;;;;;;;1223.17;999.90;;;;;;;42.29;27.84;93934.88;10585197;28;20297;-76
2023/08/05 08:30:37;;;;;;;173.32;157.73;;;;;;;41.99;28.35;93942.78;10571879;28;20028;-76
2023/08/05 08:35:37;;;;;;;1182.53;999.90;;;;;;;42.10;27.75;93939.31;10584749;28;20046;-76
2023/08/05 08:40:38;;;;;;;1229.70;999.90;;;;;;;42.37;28.24;93948.53;10564495;28;20368;-76
2023/08/05 08:45:38;;;;;;;1201.57;999.90;;;;;;;43.88;26.78;93938.53;10565073;28;20320;-76
2023/08/05 08:50:40;;;;;;;1210.95;999.90;;;;;;;44.55;26.25;93932.09;10584929;28;20287;-76
2023/08/05 08:55:42;;;;;;;1247.75;999.90;;;;;;;43.22;27.16;93927.25;10585056;27;20213;-76
2023/08/05 09:00:43;;;;;;;1233.80;999.90;;;;;;;-146.07;100.00;70291.31;10584434;28;20212;-76
2023/08/05 09:05:46;;;;;;;1241.68;999.90;;;;;;;-146.07;100.00;70291.31;10584517;28;20038;-76
2023/08/05 09:10:46;;;;;;;1246.47;999.90;;;;;;;-146.07;100.00;70291.31;10577092;28;20071;-76
2023/08/05 09:15:49;;;;;;;1254.47;999.90;;;;;;;-146.07;100.00;70291.31;10544897;28;20084;-76
2023/08/05 09:20:50;;;;;;;1245.85;999.90;;;;;;;-146.07;100.00;70291.31;10582729;28;20020;-76
2023/08/05 09:25:51;;;;;;;844.60;765.28;;;;;;;-146.07;100.00;70291.31;10582746;28;20329;-76
2023/08/05 09:30:51;;;;;;;904.03;805.83;;;;;;;-146.07;100.00;70291.31;10582935;28;20210;-76
2023/08/05 09:35:53;;;;;;;37.77;34.20;;;;;;;-146.07;100.00;70291.31;10582193;28;20086;-76
2023/08/05 09:40:55;;;;;;;316.88;283.25;;;;;;;-146.07;100.00;70291.31;10581722;28;20294;-76
2023/08/05 09:45:55;;;;;;;10.10;7.07;;;;;;;-146.07;100.00;70291.31;10582882;28;20027;-76
2023/08/05 09:50:58;;;;;;;207.10;188.70;;;;;;;-146.07;100.00;70291.31;10582661;28;20033;-76
2023/08/05 09:55:59;;;;;;;248.77;222.98;;;;;;;-146.07;100.00;70291.31;10582374;28;20031;-76
2023/08/05 10:00:59;;;;;;;144.70;129.57;;;;;;;-146.07;100.00;70291.31;10581678;27;20027;-76
2023/08/05 10:06:00;;;;;;;531.53;334.00;;;;;;;-146.07;100.00;70291.31;10582258;28;20273;-76
2023/08/05 10:11:02;;;;;;;153.10;139.32;;;;;;;-146.07;100.00;70291.31;10584032;27;20123;-76
2023/08/05 10:16:03;;;;;;;6.35;3.50;;;;;;;-146.07;100.00;70291.31;10582329;27;20208;-77
2023/08/05 10:21:08;;;;;;;6.75;3.08;;;;;;;-146.07;100.00;70291.31;10581698;28;20023;-77
2023/08/05 10:26:11;;;;;;;374.30;268.25;;;;;;;-146.07;100.00;70291.31;10582405;28;20036;-77
2023/08/05 10:31:36;;;;;;;4.45;3.75;;;;;;;-146.07;100.00;70291.31;10581612;28;20051;-77
2023/08/05 10:36:46;;;;;;;;;;;;;;;-146.07;100.00;70291.31;10581631;28;20046;-77
2023/08/05 10:41:46;;;;;;;33.17;30.58;;;;;;;-146.07;100.00;70291.31;10579782;28;19915;-77
2023/08/05 10:46:47;;;;;;;434.63;397.10;;;;;;;-146.07;100.00;70291.31;10580801;28;20122;-75
2023/08/05 10:51:48;;;;;;;134.60;122.70;;;;;;;-146.07;100.00;70291.31;10580886;28;20016;-77
2023/08/05 10:56:48;;;;;;;286.15;260.42;;;;;;;-146.07;100.00;70291.31;10580861;28;20512;-77
2023/08/05 11:01:56;;;;;;;6.27;4.00;;;;;;;-146.07;100.00;70291.31;10580224;28;20020;-76
2023/08/05 11:06:59;;;;;;;27.50;15.07;;;;;;;-146.07;100.00;70291.31;10580696;28;20264;-76
2023/08/05 11:12:01;;;;;;;614.33;492.03;;;;;;;-146.07;100.00;70291.31;10580150;28;20293;-76
2023/08/05 11:17:07;;;;;;;7.03;4.50;;;;;;;-146.07;100.00;70291.31;10569555;28;20079;-76
2023/08/05 11:22:07;;;;;;;21.63;19.92;;;;;;;-146.07;100.00;70291.31;10538340;28;20019;-76
2023/08/05 11:27:08;;;;;;;400.30;366.02;;;;;;;-146.07;100.00;70291.31;10546148;28;20027;-76
2023/08/05 11:32:08;;;;;;;314.43;288.33;;;;;;;-146.07;100.00;70291.31;10580585;28;20119;-76
2023/08/05 11:37:08;;;;;;;462.50;423.60;;;;;;;-146.07;100.00;70291.31;10588052;27;20205;-75
2023/08/05 11:42:10;;;;;;;295.83;270.67;;;;;;;-146.07;100.00;70291.31;10587401;28;20320;-75
2023/08/05 11:47:10;;;;;;;8.20;5.82;;;;;;;-146.07;100.00;70291.31;10570674;28;20031;-75
2023/08/05 11:52:11;;;;;;;10.57;5.60;;;;;;;-146.07;100.00;70291.31;10562606;28;20091;-76
2023/08/05 11:57:18;;;;;;;592.75;543.58;;;;;;;-146.07;100.00;70291.31;10587419;28;20269;-75
2023/08/05 12:02:19;;;;;;;11.40;5.53;;;;;;;-146.07;100.00;70291.31;10586792;28;20314;-76
2023/08/05 12:07:20;;;;;;;6.53;5.55;;;;;;;-146.07;100.00;70291.31;10587315;28;20046;-75
2023/08/05 12:12:21;;;;;;;10.63;5.65;;;;;;;-146.07;100.00;70291.31;10586903;28;20086;-75
2023/08/05 12:17:21;;;;;;;33.63;31.37;;;;;;;-146.07;100.00;70291.31;10586235;28;20372;-76
2023/08/05 12:22:22;;;;;;;9.88;4.70;;;;;;;-146.07;100.00;70291.31;10586240;28;20030;-77
2023/08/05 12:27:22;;;;;;;428.33;393.60;;;;;;;-146.07;100.00;70291.31;10585846;28;20304;-76
2023/08/05 12:32:22;;;;;;;636.13;583.07;;;;;;;-146.07;100.00;70291.31;10584537;28;20087;-76
2023/08/05 12:37:23;;;;;;;466.07;427.47;;;;;;;-146.07;100.00;70291.31;10585913;28;20351;-76
2023/08/05 12:42:23;;;;;;;146.77;135.43;;;;;;;-146.07;100.00;70291.31;10584188;28;20313;-76
2023/08/05 12:47:24;;;;;;;189.23;173.57;;;;;;;-146.07;100.00;70291.31;10585815;28;20057;-76
2023/08/05 12:52:25;;;;;;;234.63;215.70;;;;;;;-146.07;100.00;70291.31;10584649;28;20027;-76
2023/08/05 12:57:25;;;;;;;599.90;550.60;;;;;;;-146.07;100.00;70291.31;10584520;28;20043;-76
2023/08/05 13:02:26;;;;;;;862.60;789.63;;;;;;;-146.07;100.00;70291.31;10584796;28;20039;-76
2023/08/05 13:07:26;;;;;;;743.20;679.95;;;;;;;-146.07;100.00;70291.31;10584790;28;20301;-76
2023/08/05 13:12:27;;;;;;;10.80;8.07;;;;;;;-146.07;100.00;70291.31;10583874;28;20044;-76
2023/08/05 13:17:27;;;;;;;316.40;291.93;;;;;;;-146.07;100.00;70291.31;10584223;28;20219;-76
2023/08/05 13:22:28;;;;;;;740.93;679.27;;;;;;;-146.07;100.00;70291.31;10583639;28;20281;-76
2023/08/05 13:27:28;;;;;;;740.08;674.97;;;;;;;-146.07;100.00;70291.31;10583655;28;20031;-76
2023/08/05 13:32:28;;;;;;;243.90;223.70;;;;;;;-146.07;100.00;70291.31;10583798;28;20028;-76
2023/08/05 13:37:29;;;;;;;819.80;741.60;;;;;;;-146.07;100.00;70291.31;10581787;28;20281;-76
2023/08/05 13:42:29;;;;;;;465.67;426.93;;;;;;;-146.07;100.00;70291.31;10582934;28;20366;-76
2023/08/05 13:47:30;;;;;;;580.63;531.97;;;;;;;-146.07;100.00;70291.31;10562049;28;20028;-75
2023/08/05 13:52:30;;;;;;;204.07;188.00;;;;;;;-146.07;100.00;70291.31;10541455;28;20289;-75
2023/08/05 13:57:30;;;;;;;647.40;585.17;;;;;;;-146.07;100.00;70291.31;10546242;28;20027;-75
2023/08/05 14:02:31;;;;;;;59.33;54.93;;;;;;;-146.07;100.00;70291.31;10582601;28;20284;-75
2023/08/05 14:07:31;;;;;;;586.10;540.30;;;;;;;-146.07;100.00;70291.31;10579468;28;20114;-75
2023/08/05 14:12:32;;;;;;;774.93;710.10;;;;;;;-146.07;100.00;70291.31;10578213;28;20662;-75
2023/08/05 14:17:32;;;;;;;737.13;675.37;;;;;;;-146.07;100.00;70291.31;10552761;28;20461;-75
2023/08/05 14:22:33;;;;;;;754.50;691.30;;;;;;;-146.07;100.00;70291.31;10554693;28;20493;-75
2023/08/05 14:27:33;;;;;;;688.27;631.07;;;;;;;-146.07;100.00;70291.31;10580146;28;20044;-76
2023/08/05 14:32:33;;;;;;;104.07;95.50;;;;;;;-146.07;100.00;70291.31;10540972;28;20248;-78
2023/08/05 14:37:34;;;;;;;947.43;858.20;;;;;;;-146.07;100.00;70291.31;10536913;28;20277;-77
2023/08/05 14:42:34;;;;;;;6.53;4.57;;;;;;;-146.07;100.00;70291.31;10538915;28;20097;-81
2023/08/05 14:47:35;;;;;;;15.90;4.57;;;;;;;-146.07;100.00;70291.31;10544127;28;20073;-73
2023/08/05 14:52:35;;;;;;;10.37;7.63;;;;;;;-146.07;100.00;70291.31;10540919;28;20292;-74
2023/08/05 14:57:37;;;;;;;360.60;332.80;;;;;;;-146.07;100.00;70291.31;10535762;28;20329;-73
2023/08/05 15:02:38;;;;;;;1065.03;974.80;;;;;;;-146.07;100.00;70291.31;10536033;28;20051;-69
2023/08/05 15:07:38;;;;;;;1042.73;952.90;;;;;;;-146.07;100.00;70291.31;10534010;28;20234;-79
2023/08/05 15:12:39;;;;;;;9.60;5.37;;;;;;;-146.07;100.00;70291.31;10534426;28;20051;-78
2023/08/05 15:17:41;;;;;;;141.48;132.35;;;;;;;-146.07;100.00;70291.31;10536344;28;20880;-78
2023/08/05 15:22:41;;;;;;;333.92;306.15;;;;;;;-146.07;100.00;70291.31;10533288;28;20106;-78
2023/08/05 15:27:42;;;;;;;508.23;468.07;;;;;;;-146.07;100.00;70291.31;10530883;28;20214;-78
2023/08/05 15:32:42;;;;;;;460.73;421.88;;;;;;;-146.07;100.00;70291.31;10531037;28;20020;-79
2023/08/05 15:37:42;;;;;;;688.00;630.00;;;;;;;-146.07;100.00;70291.31;10535211;28;21337;-79
2023/08/05 15:42:43;;;;;;;536.87;491.23;;;;;;;-146.07;100.00;70291.31;10534793;28;20051;-78
2023/08/05 15:47:43;;;;;;;1205.32;999.90;;;;;;;-146.07;100.00;70291.31;10536447;28;20470;-78
2023/08/05 15:52:45;;;;;;;243.88;221.40;;;;;;;-146.07;100.00;70291.31;10534558;28;20032;-78
2023/08/05 15:57:47;;;;;;;1097.97;996.72;;;;;;;-146.07;100.00;70291.31;10536025;28;20023;-78
2023/08/05 16:02:47;;;;;;;11.52;6.57;;;;;;;-146.07;100.00;70291.31;10534024;28;20012;-78
2023/08/05 16:07:47;;;;;;;195.03;178.13;;;;;;;-146.07;100.00;70291.31;10536941;28;20026;-79
2023/08/05 16:12:48;;;;;;;10.93;6.53;;;;;;;-146.07;100.00;70291.31;10543667;28;20229;-78
2023/08/05 16:17:49;;;;;;;11.40;6.63;;;;;;;-146.07;100.00;70291.31;10541790;28;20277;-79
2023/08/05 16:22:50;;;;;;;8.73;6.03;;;;;;;-146.07;100.00;70291.31;10543313;28;20092;-79
2023/08/05 16:27:52;;;;;;;9.07;5.85;;;;;;;-146.07;100.00;70291.31;10543154;28;20024;-79
2023/08/05 16:32:53;;;;;;;9.65;6.68;;;;;;;-146.07;100.00;70291.31;10542646;28;20036;-78
2023/08/05 16:37:53;;;;;;;15.35;7.10;;;;;;;-146.07;100.00;70291.31;10544901;28;20232;-78
2023/08/05 16:42:53;;;;;;;11.07;6.53;;;;;;;-146.07;100.00;70291.31;10545205;28;20065;-78
2023/08/05 16:47:54;;;;;;;67.80;63.10;;;;;;;-146.07;100.00;70291.31;10539691;28;20251;-78
2023/08/05 16:52:54;;;;;;;449.27;412.63;;;;;;;-146.07;100.00;70291.31;10542424;28;20031;-79
2023/08/05 16:57:55;;;;;;;9.53;6.20;;;;;;;-146.07;100.00;70291.31;10541130;28;20028;-78
2023/08/05 17:02:55;;;;;;;11.87;6.00;;;;;;;-146.07;100.00;70291.31;10542397;28;20217;-78
2023/08/05 17:07:56;;;;;;;263.38;242.57;;;;;;;-146.07;100.00;70291.31;10540957;28;20621;-79
2023/08/05 17:13:00;;;;;;;633.65;582.83;;;;;;;-146.07;100.00;70291.31;10541913;28;20048;-79
2023/08/05 17:18:00;;;;;;;9.77;7.15;;;;;;;-146.07;100.00;70291.31;10542976;28;20084;-78
2023/08/05 17:23:00;;;;;;;787.08;722.50;;;;;;;-146.07;100.00;70291.31;10543049;28;20269;-78
2023/08/05 17:28:01;;;;;;;1087.07;981.20;;;;;;;-146.07;100.00;70291.31;10544267;28;20035;-78
2023/08/05 17:33:02;;;;;;;9.03;6.40;;;;;;;-146.07;100.00;70291.31;10542253;28;20369;-78
2023/08/05 17:38:03;;;;;;;9.98;6.93;;;;;;;-146.07;100.00;70291.31;10539794;28;20432;-78
2023/08/05 17:43:03;;;;;;;10.00;6.88;;;;;;;-146.07;100.00;70291.31;10540213;28;20039;-78
2023/08/05 17:48:03;;;;;;;16.73;6.47;;;;;;;-146.07;100.00;70291.31;10539054;28;20111;-78
2023/08/05 17:53:04;;;;;;;8.90;6.73;;;;;;;-146.07;100.00;70291.31;10540244;28;20074;-79
2023/08/05 17:58:04;;;;;;;14.50;7.03;;;;;;;-146.07;100.00;70291.31;10538436;28;20273;-78
2023/08/05 18:03:05;;;;;;;10.17;7.17;;;;;;;-146.07;100.00;70291.31;10538308;28;20265;-78
2023/08/05 18:08:05;;;;;;;11.90;8.13;;;;;;;-146.07;100.00;70291.31;10540622;28;20024;-77
2023/08/05 18:13:06;;;;;;;18.20;6.35;;;;;;;-146.07;100.00;70291.31;10538161;28;20491;-76
2023/08/05 18:18:06;;;;;;;7.73;6.80;;;;;;;-146.07;100.00;70291.31;10538121;28;20023;-78
2023/08/05 18:23:07;;;;;;;12.20;7.75;;;;;;;-146.07;100.00;70291.31;10537705;28;20281;-77
2023/08/05 18:28:09;;;;;;;10.90;7.47;;;;;;;-146.07;100.00;70291.31;10525809;28;20038;-74
2023/08/05 18:33:11;;;;;;;17.90;8.77;;;;;;;-146.07;100.00;70291.31;10525766;28;20088;-79
2023/08/05 18:38:11;;;;;;;16.58;9.90;;;;;;;-146.07;100.00;70291.31;10527440;28;20228;-77
2023/08/05 18:43:12;;;;;;;6.47;5.70;;;;;;;-146.07;100.00;70291.31;10529267;28;20035;-77
2023/08/05 18:48:12;;;;;;;7.05;5.60;;;;;;;-146.07;100.00;70291.31;10524704;28;20294;-77
2023/08/05 18:53:16;;;;;;;11.77;5.10;;;;;;;-146.07;100.00;70291.31;10525576;28;20039;-77
2023/08/05 18:58:17;;;;;;;11.82;6.95;;;;;;;-146.07;100.00;70291.31;10524902;28;20070;-77
2023/08/05 19:03:17;;;;;;;27.02;3.72;;;;;;;-146.07;100.00;70291.31;10523495;28;20027;-79
2023/08/05 19:08:18;;;;;;;17.95;4.05;;;;;;;-146.07;100.00;70291.31;10521815;28;20016;-79
2023/08/05 19:13:19;;;;;;;18.57;3.90;;;;;;;-146.07;100.00;70291.31;10527880;28;20032;-77
2023/08/05 19:18:19;;;;;;;12.10;3.57;;;;;;;-146.07;100.00;70291.31;10525076;28;20278;-77
2023/08/05 19:23:20;;;;;;;14.83;4.00;;;;;;;-146.07;100.00;70291.31;10526119;28;20678;-77
2023/08/05 19:28:20;;;;;;;8.25;3.53;;;;;;;-146.07;100.00;70291.31;10524701;28;20289;-77
2023/08/05 19:33:20;;;;;;;11.32;3.97;;;;;;;-146.07;100.00;70291.31;10523024;28;20093;-76
2023/08/05 19:38:21;;;;;;;4.57;2.28;;;;;;;-146.07;100.00;70291.31;10524401;28;20603;-69
2023/08/05 19:43:23;;;;;;;9.10;2.28;;;;;;;-146.07;100.00;70291.31;10524047;28;20036;-69
2023/08/05 19:48:24;;;;;;;11.40;2.60;;;;;;;-146.07;100.00;70291.31;10530557;28;20028;-74
2023/08/05 19:53:24;;;;;;;4.43;2.03;;;;;;;-146.07;100.00;70291.31;10532234;28;20522;-79
2023/08/05 19:58:25;;;;;;;5.67;1.60;;;;;;;-146.07;100.00;70291.31;10533260;28;20023;-73
2023/08/05 20:03:25;;;;;;;8.38;2.15;;;;;;;-146.07;100.00;70291.31;10530933;28;20389;-69
2023/08/05 20:08:26;;;;;;;6.53;2.37;;;;;;;-146.07;100.00;70291.31;10532796;28;20074;-70
2023/08/05 20:13:26;;;;;;;4.50;2.47;;;;;;;-146.07;100.00;70291.31;10529955;28;20386;-70
2023/08/05 20:18:27;;;;;;;12.23;2.20;;;;;;;-146.07;100.00;70291.31;10531297;28;20028;-70
2023/08/05 20:23:27;;;;;;;4.45;2.15;;;;;;;-146.07;100.00;70291.31;10531817;28;20285;-68
2023/08/05 20:28:28;;;;;;;3.30;2.15;;;;;;;-146.07;100.00;70291.31;10530880;28;20020;-69
2023/08/05 20:33:28;;;;;;;3.33;2.20;;;;;;;-146.07;100.00;70291.31;10527413;28;20062;-80
2023/08/05 20:38:29;;;;;;;4.30;2.20;;;;;;;-146.07;100.00;70291.31;10537453;28;20285;-82
2023/08/05 20:43:30;;;;;;;3.77;1.83;;;;;;;-146.07;100.00;70291.31;10537663;28;20020;-80
2023/08/05 20:48:31;;;;;;;2.58;1.85;;;;;;;-146.07;100.00;70291.31;10531406;28;20277;-75
2023/08/05 20:53:31;;;;;;;2.17;1.80;;;;;;;-146.07;100.00;70291.31;10528204;28;20024;-80
2023/08/05 20:58:33;;;;;;;5.17;2.20;;;;;;;-146.07;100.00;70291.31;10529946;28;20613;-82
2023/08/05 21:03:35;;;;;;;9.07;2.33;;;;;;;-146.07;100.00;70291.31;10530051;28;20274;-74
2023/08/05 21:08:36;;;;;;;2.85;2.10;;;;;;;-146.07;100.00;70291.31;10527843;28;20031;-72
2023/08/05 21:13:38;;;;;;;3.50;2.22;;;;;;;-146.07;100.00;70291.31;10526980;28;20055;-73
2023/08/05 21:18:38;;;;;;;5.03;2.22;;;;;;;-146.07;100.00;70291.31;10526832;28;20027;-72
2023/08/05 21:23:40;;;;;;;5.55;2.85;;;;;;;-146.07;100.00;70291.31;10529292;28;20131;-72
2023/08/05 21:28:41;;;;;;;4.88;2.30;;;;;;;-146.07;100.00;70291.31;10533488;28;20036;-72
2023/08/05 21:33:42;;;;;;;3.40;2.78;;;;;;;-146.07;100.00;70291.31;10529021;28;20348;-74
2023/08/05 21:38:42;;;;;;;5.83;2.40;;;;;;;-146.07;100.00;70291.31;10523796;28;20240;-71
2023/08/05 21:43:43;;;;;;;13.00;2.90;;;;;;;-146.07;100.00;70291.31;10524685;28;20084;-71
2023/08/05 21:48:43;;;;;;;4.53;2.80;;;;;;;-146.07;100.00;70291.31;10512396;28;20020;-72
2023/08/05 21:53:44;;;;;;;3.67;2.27;;;;;;;-146.07;100.00;70291.31;10524444;28;20333;-70
2023/08/05 21:58:44;;;;;;;2.90;1.93;;;;;;;-146.07;100.00;70291.31;10525361;28;20019;-68
2023/08/05 22:03:44;;;;;;;6.13;2.20;;;;;;;-146.07;100.00;70291.31;10523444;28;20020;-70
2023/08/05 22:08:45;;;;;;;12.80;2.73;;;;;;;-146.07;100.00;70291.31;10525327;28;20137;-68
2023/08/05 22:13:45;;;;;;;9.77;3.35;;;;;;;-146.07;100.00;70291.31;10525279;28;20056;-69
2023/08/05 22:18:46;;;;;;;10.97;4.80;;;;;;;-146.07;100.00;70291.31;10558883;27;20035;-68
2023/08/05 22:23:46;;;;;;;6.93;3.10;;;;;;;-146.07;100.00;70291.31;10522628;28;20057;-67
2023/08/05 22:28:46;;;;;;;8.23;3.93;;;;;;;-146.07;100.00;70291.31;10522946;28;20499;-67
2023/08/05 22:33:48;;;;;;;5.30;3.60;;;;;;;-146.07;100.00;70291.31;10521726;28;20638;-67
2023/08/05 22:38:48;;;;;;;7.20;4.40;;;;;;;-146.07;100.00;70291.31;10522539;28;20603;-67
2023/08/05 22:43:49;;;;;;;9.35;4.00;;;;;;;-146.07;100.00;70291.31;10522800;28;20028;-67
2023/08/05 22:48:49;;;;;;;10.70;4.53;;;;;;;-146.07;100.00;70291.31;10524988;28;20309;-67
2023/08/05 22:53:50;;;;;;;7.50;4.27;;;;;;;-146.07;100.00;70291.31;10525149;28;20129;-67
2023/08/05 22:58:54;;;;;;;6.37;4.67;;;;;;;-146.07;100.00;70291.31;10520667;28;20392;-67
2023/08/05 23:03:54;;;;;;;6.80;4.60;;;;;;;-146.07;100.00;70291.31;10523062;28;20278;-68
2023/08/05 23:08:55;;;;;;;6.18;4.43;;;;;;;-146.07;100.00;70291.31;10523948;28;20070;-68
2023/08/05 23:13:55;;;;;;;10.27;5.57;;;;;;;-146.07;100.00;70291.31;10522555;28;20270;-68
2023/08/05 23:18:56;;;;;;;6.65;4.32;;;;;;;-146.07;100.00;70291.31;10529009;28;20028;-68
2023/08/05 23:23:59;;;;;;;10.10;4.80;;;;;;;-146.07;100.00;70291.31;10534297;28;20031;-68
2023/08/05 23:29:00;;;;;;;5.72;4.28;;;;;;;-146.07;100.00;70291.31;10532202;28;20623;-70
2023/08/05 23:34:00;;;;;;;6.77;3.97;;;;;;;-146.07;100.00;70291.31;10534036;28;20110;-69
2023/08/05 23:39:01;;;;;;;6.25;4.00;;;;;;;-146.07;100.00;70291.31;10528596;28;20471;-69